sensor_id;sensor_type;location;lat;lon;timestamp;temperature;humidity
4615;DHT22;2320;51.362;6.946;2022-08-19T00:01:36;17.50;99.90
4615;DHT22;2320;51.362;6.946;2022-08-19T00:04:03;17.30;99.90
4615;DHT22;2320;51.362;6.946;2022-08-19T00:06:29;17.40;99.90
4615;DHT22;2320;51.362;6.946;2022-08-19T00:08:55;17.40;99.90
4615;DHT22;2320;51.362;6.946;2022-08-19T00:11:21;17.30;99.90
4615;DHT22;2320;51.362;6.946;2022-08-19T00:13:47;17.30;99.90
4615;DHT22;2320;51.362;6.946;2022-08-19T00:16:14;17.30;99.90
4615;DHT22;2320;51.362;6.946;2022-08-19T00:18:39;17.40;99.90
4615;DHT22;2320;51.362;6.946;2022-08-19T00:21:05;17.40;99.90
4615;DHT22;2320;51.362;6.946;2022-08-19T00:23:32;17.40;99.90
4615;DHT22;2320;51.362;6.946;2022-08-19T00:26:00;17.40;99.90
4615;DHT22;2320;51.362;6.946;2022-08-19T00:28:25;17.30;99.90
4615;DHT22;2320;51.362;6.946;2022-08-19T00:30:51;17.20;99.90
4615;DHT22;2320;51.362;6.946;2022-08-19T00:33:18;17.00;99.90
4615;DHT22;2320;51.362;6.946;2022-08-19T00:35:44;16.90;99.90
4615;DHT22;2320;51.362;6.946;2022-08-19T00:38:09;17.10;99.90
4615;DHT22;2320;51.362;6.946;2022-08-19T00:40:35;17.00;99.90
4615;DHT22;2320;51.362;6.946;2022-08-19T00:43:00;17.10;99.90
4615;DHT22;2320;51.362;6.946;2022-08-19T00:45:27;17.00;99.90
4615;DHT22;2320;51.362;6.946;2022-08-19T00:47:53;17.10;99.90
4615;DHT22;2320;51.362;6.946;2022-08-19T00:50:20;17.30;99.90
4615;DHT22;2320;51.362;6.946;2022-08-19T00:52:47;17.20;99.90
4615;DHT22;2320;51.362;6.946;2022-08-19T00:55:22;17.00;99.90
4615;DHT22;2320;51.362;6.946;2022-08-19T00:57:53;16.90;99.90
4615;DHT22;2320;51.362;6.946;2022-08-19T01:00:21;17.00;99.90
4615;DHT22;2320;51.362;6.946;2022-08-19T01:02:46;17.10;99.90
4615;DHT22;2320;51.362;6.946;2022-08-19T01:05:21;17.10;99.90
4615;DHT22;2320;51.362;6.946;2022-08-19T01:07:47;16.90;99.90
4615;DHT22;2320;51.362;6.946;2022-08-19T01:10:17;17.10;99.90
4615;DHT22;2320;51.362;6.946;2022-08-19T01:12:44;16.90;99.90
4615;DHT22;2320;51.362;6.946;2022-08-19T01:15:11;16.90;99.90
4615;DHT22;2320;51.362;6.946;2022-08-19T01:17:37;17.00;99.90
4615;DHT22;2320;51.362;6.946;2022-08-19T01:20:04;17.10;99.90
4615;DHT22;2320;51.362;6.946;2022-08-19T01:24:55;17.00;99.90
4615;DHT22;2320;51.362;6.946;2022-08-19T01:27:20;16.90;99.90
4615;DHT22;2320;51.362;6.946;2022-08-19T01:29:46;16.80;99.90
4615;DHT22;2320;51.362;6.946;2022-08-19T01:32:12;16.80;99.90
4615;DHT22;2320;51.362;6.946;2022-08-19T01:34:38;16.80;99.90
4615;DHT22;2320;51.362;6.946;2022-08-19T01:37:08;16.80;99.90
4615;DHT22;2320;51.362;6.946;2022-08-19T01:39:36;16.80;99.90
4615;DHT22;2320;51.362;6.946;2022-08-19T01:42:02;16.80;99.90
4615;DHT22;2320;51.362;6.946;2022-08-19T01:44:28;16.90;99.90
4615;DHT22;2320;51.362;6.946;2022-08-19T01:46:54;16.80;99.90
4615;DHT22;2320;51.362;6.946;2022-08-19T01:49:21;16.70;99.90
4615;DHT22;2320;51.362;6.946;2022-08-19T01:51:46;16.60;99.90
4615;DHT22;2320;51.362;6.946;2022-08-19T01:54:13;16.50;99.90
4615;DHT22;2320;51.362;6.946;2022-08-19T01:56:39;16.50;99.90
4615;DHT22;2320;51.362;6.946;2022-08-19T01:59:06;16.50;99.90
4615;DHT22;2320;51.362;6.946;2022-08-19T02:01:33;16.50;99.90
4615;DHT22;2320;51.362;6.946;2022-08-19T02:03:59;16.50;99.90
4615;DHT22;2320;51.362;6.946;2022-08-19T02:06:26;16.50;99.90
4615;DHT22;2320;51.362;6.946;2022-08-19T02:08:51;16.60;99.90
4615;DHT22;2320;51.362;6.946;2022-08-19T02:11:21;16.50;99.90
4615;DHT22;2320;51.362;6.946;2022-08-19T02:13:47;16.50;99.90
4615;DHT22;2320;51.362;6.946;2022-08-19T02:16:15;16.50;99.90
4615;DHT22;2320;51.362;6.946;2022-08-19T02:18:41;16.50;99.90
4615;DHT22;2320;51.362;6.946;2022-08-19T02:21:06;16.40;99.90
4615;DHT22;2320;51.362;6.946;2022-08-19T02:23:32;16.30;99.90
4615;DHT22;2320;51.362;6.946;2022-08-19T02:25:57;16.30;99.90
4615;DHT22;2320;51.362;6.946;2022-08-19T02:28:23;16.30;99.90
4615;DHT22;2320;51.362;6.946;2022-08-19T02:30:49;16.20;99.90
4615;DHT22;2320;51.362;6.946;2022-08-19T02:33:14;16.10;99.90
4615;DHT22;2320;51.362;6.946;2022-08-19T02:35:41;16.20;99.90
4615;DHT22;2320;51.362;6.946;2022-08-19T02:38:07;16.20;99.90
4615;DHT22;2320;51.362;6.946;2022-08-19T02:40:53;16.30;99.90
4615;DHT22;2320;51.362;6.946;2022-08-19T02:43:19;16.30;99.90
4615;DHT22;2320;51.362;6.946;2022-08-19T02:45:47;16.30;99.90
4615;DHT22;2320;51.362;6.946;2022-08-19T02:48:14;16.40;99.90
4615;DHT22;2320;51.362;6.946;2022-08-19T02:50:41;16.40;99.90
4615;DHT22;2320;51.362;6.946;2022-08-19T02:53:07;16.50;99.90
4615;DHT22;2320;51.362;6.946;2022-08-19T02:55:33;16.50;99.90
4615;DHT22;2320;51.362;6.946;2022-08-19T02:57:59;16.40;99.90
4615;DHT22;2320;51.362;6.946;2022-08-19T03:00:25;16.50;99.90
4615;DHT22;2320;51.362;6.946;2022-08-19T03:02:51;16.50;99.90
4615;DHT22;2320;51.362;6.946;2022-08-19T03:05:17;16.60;99.90
4615;DHT22;2320;51.362;6.946;2022-08-19T03:07:42;16.60;99.90
4615;DHT22;2320;51.362;6.946;2022-08-19T03:10:08;16.60;99.90
4615;DHT22;2320;51.362;6.946;2022-08-19T03:12:37;16.70;99.90
4615;DHT22;2320;51.362;6.946;2022-08-19T03:15:03;16.60;99.90
4615;DHT22;2320;51.362;6.946;2022-08-19T03:17:29;16.60;99.90
4615;DHT22;2320;51.362;6.946;2022-08-19T03:19:54;16.60;99.90
4615;DHT22;2320;51.362;6.946;2022-08-19T03:22:20;16.50;99.90
4615;DHT22;2320;51.362;6.946;2022-08-19T03:24:46;16.50;99.90
4615;DHT22;2320;51.362;6.946;2022-08-19T03:27:11;16.40;99.90
4615;DHT22;2320;51.362;6.946;2022-08-19T03:29:37;16.30;99.90
4615;DHT22;2320;51.362;6.946;2022-08-19T03:32:04;16.30;99.90
4615;DHT22;2320;51.362;6.946;2022-08-19T03:34:30;16.30;99.90
4615;DHT22;2320;51.362;6.946;2022-08-19T03:36:57;16.30;99.90
4615;DHT22;2320;51.362;6.946;2022-08-19T03:39:24;16.30;99.90
4615;DHT22;2320;51.362;6.946;2022-08-19T03:41:49;16.20;99.90
4615;DHT22;2320;51.362;6.946;2022-08-19T03:44:17;16.30;99.90
4615;DHT22;2320;51.362;6.946;2022-08-19T03:46:43;16.30;99.90
4615;DHT22;2320;51.362;6.946;2022-08-19T03:49:08;16.40;99.90
4615;DHT22;2320;51.362;6.946;2022-08-19T03:51:36;16.30;99.90
4615;DHT22;2320;51.362;6.946;2022-08-19T03:54:03;16.30;99.90
4615;DHT22;2320;51.362;6.946;2022-08-19T03:56:28;16.20;99.90
4615;DHT22;2320;51.362;6.946;2022-08-19T03:58:55;16.10;99.90
4615;DHT22;2320;51.362;6.946;2022-08-19T04:01:22;16.10;99.90
4615;DHT22;2320;51.362;6.946;2022-08-19T04:03:48;16.30;99.90
4615;DHT22;2320;51.362;6.946;2022-08-19T04:08:40;16.20;99.90
4615;DHT22;2320;51.362;6.946;2022-08-19T04:11:11;16.20;99.90
4615;DHT22;2320;51.362;6.946;2022-08-19T04:13:37;16.30;99.90
4615;DHT22;2320;51.362;6.946;2022-08-19T04:16:03;16.30;99.90
4615;DHT22;2320;51.362;6.946;2022-08-19T04:18:29;16.30;99.90
4615;DHT22;2320;51.362;6.946;2022-08-19T04:20:55;16.40;99.90
4615;DHT22;2320;51.362;6.946;2022-08-19T04:23:22;16.40;99.90
4615;DHT22;2320;51.362;6.946;2022-08-19T04:25:48;16.40;99.90
4615;DHT22;2320;51.362;6.946;2022-08-19T04:28:14;16.30;99.90
4615;DHT22;2320;51.362;6.946;2022-08-19T04:30:40;16.40;99.90
4615;DHT22;2320;51.362;6.946;2022-08-19T04:33:06;16.40;99.90
4615;DHT22;2320;51.362;6.946;2022-08-19T04:35:39;16.50;99.90
4615;DHT22;2320;51.362;6.946;2022-08-19T04:38:04;16.50;99.90
4615;DHT22;2320;51.362;6.946;2022-08-19T04:40:30;16.40;99.90
4615;DHT22;2320;51.362;6.946;2022-08-19T04:43:14;16.40;99.90
4615;DHT22;2320;51.362;6.946;2022-08-19T04:45:42;16.20;99.90
4615;DHT22;2320;51.362;6.946;2022-08-19T04:48:08;16.20;99.90
4615;DHT22;2320;51.362;6.946;2022-08-19T04:50:33;16.30;99.90
4615;DHT22;2320;51.362;6.946;2022-08-19T04:52:59;16.50;99.90
4615;DHT22;2320;51.362;6.946;2022-08-19T04:55:24;16.50;99.90
4615;DHT22;2320;51.362;6.946;2022-08-19T04:57:53;16.60;99.90
4615;DHT22;2320;51.362;6.946;2022-08-19T05:00:19;16.50;99.90
4615;DHT22;2320;51.362;6.946;2022-08-19T05:02:44;16.30;99.90
4615;DHT22;2320;51.362;6.946;2022-08-19T05:05:10;16.30;99.90
4615;DHT22;2320;51.362;6.946;2022-08-19T05:07:36;16.40;99.90
4615;DHT22;2320;51.362;6.946;2022-08-19T05:10:02;16.60;99.90
4615;DHT22;2320;51.362;6.946;2022-08-19T05:12:28;16.70;99.90
4615;DHT22;2320;51.362;6.946;2022-08-19T05:14:53;17.00;99.90
4615;DHT22;2320;51.362;6.946;2022-08-19T05:17:19;17.00;99.90
4615;DHT22;2320;51.362;6.946;2022-08-19T05:19:44;17.20;99.90
4615;DHT22;2320;51.362;6.946;2022-08-19T05:22:28;17.20;99.90
4615;DHT22;2320;51.362;6.946;2022-08-19T05:24:58;17.10;99.90
4615;DHT22;2320;51.362;6.946;2022-08-19T05:27:24;17.40;99.90
4615;DHT22;2320;51.362;6.946;2022-08-19T05:29:49;17.60;99.90
4615;DHT22;2320;51.362;6.946;2022-08-19T05:32:14;17.90;99.90
4615;DHT22;2320;51.362;6.946;2022-08-19T05:34:40;18.10;99.90
4615;DHT22;2320;51.362;6.946;2022-08-19T05:37:06;18.20;99.90
4615;DHT22;2320;51.362;6.946;2022-08-19T05:39:34;18.10;99.90
4615;DHT22;2320;51.362;6.946;2022-08-19T05:42:02;18.00;99.90
4615;DHT22;2320;51.362;6.946;2022-08-19T05:44:29;18.00;99.90
4615;DHT22;2320;51.362;6.946;2022-08-19T05:47:02;18.10;99.90
4615;DHT22;2320;51.362;6.946;2022-08-19T05:49:28;18.80;99.90
4615;DHT22;2320;51.362;6.946;2022-08-19T05:51:54;19.70;99.90
4615;DHT22;2320;51.362;6.946;2022-08-19T05:54:21;20.80;99.90
4615;DHT22;2320;51.362;6.946;2022-08-19T05:56:48;21.80;99.90
4615;DHT22;2320;51.362;6.946;2022-08-19T05:59:14;22.60;99.90
4615;DHT22;2320;51.362;6.946;2022-08-19T06:01:41;23.80;99.90
4615;DHT22;2320;51.362;6.946;2022-08-19T06:04:07;24.70;99.90
4615;DHT22;2320;51.362;6.946;2022-08-19T06:06:33;25.60;99.90
4615;DHT22;2320;51.362;6.946;2022-08-19T06:09:05;26.50;99.90
4615;DHT22;2320;51.362;6.946;2022-08-19T06:11:36;27.20;99.90
4615;DHT22;2320;51.362;6.946;2022-08-19T06:14:04;27.80;99.90
4615;DHT22;2320;51.362;6.946;2022-08-19T06:16:30;28.20;99.90
4615;DHT22;2320;51.362;6.946;2022-08-19T06:18:58;28.50;99.90
4615;DHT22;2320;51.362;6.946;2022-08-19T06:21:25;28.60;99.90
4615;DHT22;2320;51.362;6.946;2022-08-19T06:23:52;28.80;99.90
4615;DHT22;2320;51.362;6.946;2022-08-19T06:26:18;28.70;99.90
4615;DHT22;2320;51.362;6.946;2022-08-19T06:28:44;28.40;99.90
4615;DHT22;2320;51.362;6.946;2022-08-19T06:31:13;28.00;99.90
4615;DHT22;2320;51.362;6.946;2022-08-19T06:33:40;28.20;99.90
4615;DHT22;2320;51.362;6.946;2022-08-19T06:36:06;27.80;99.90
4615;DHT22;2320;51.362;6.946;2022-08-19T06:38:31;27.70;99.90
4615;DHT22;2320;51.362;6.946;2022-08-19T06:41:04;27.70;99.90
4615;DHT22;2320;51.362;6.946;2022-08-19T06:43:30;27.40;99.90
4615;DHT22;2320;51.362;6.946;2022-08-19T06:45:55;27.40;99.90
4615;DHT22;2320;51.362;6.946;2022-08-19T06:48:21;27.10;99.90
4615;DHT22;2320;51.362;6.946;2022-08-19T06:50:46;26.60;99.90
4615;DHT22;2320;51.362;6.946;2022-08-19T06:53:15;26.00;99.90
4615;DHT22;2320;51.362;6.946;2022-08-19T06:55:40;25.70;99.90
4615;DHT22;2320;51.362;6.946;2022-08-19T06:58:06;25.30;99.90
4615;DHT22;2320;51.362;6.946;2022-08-19T07:00:32;25.00;99.90
4615;DHT22;2320;51.362;6.946;2022-08-19T07:02:57;25.10;99.90
4615;DHT22;2320;51.362;6.946;2022-08-19T07:05:24;25.30;99.90
4615;DHT22;2320;51.362;6.946;2022-08-19T07:07:49;25.60;99.90
4615;DHT22;2320;51.362;6.946;2022-08-19T07:10:15;25.60;99.90
4615;DHT22;2320;51.362;6.946;2022-08-19T07:12:40;25.70;99.90
4615;DHT22;2320;51.362;6.946;2022-08-19T07:15:06;25.90;99.90
4615;DHT22;2320;51.362;6.946;2022-08-19T07:17:34;26.10;99.90
4615;DHT22;2320;51.362;6.946;2022-08-19T07:20:02;26.20;99.90
4615;DHT22;2320;51.362;6.946;2022-08-19T07:22:28;26.40;99.90
4615;DHT22;2320;51.362;6.946;2022-08-19T07:24:54;26.80;99.90
4615;DHT22;2320;51.362;6.946;2022-08-19T07:27:19;26.60;99.90
4615;DHT22;2320;51.362;6.946;2022-08-19T07:29:44;26.60;99.90
4615;DHT22;2320;51.362;6.946;2022-08-19T07:32:11;26.80;99.90
4615;DHT22;2320;51.362;6.946;2022-08-19T07:34:36;26.80;99.90
4615;DHT22;2320;51.362;6.946;2022-08-19T07:37:03;27.10;99.90
4615;DHT22;2320;51.362;6.946;2022-08-19T07:39:30;26.70;99.90
4615;DHT22;2320;51.362;6.946;2022-08-19T07:41:56;27.00;99.90
4615;DHT22;2320;51.362;6.946;2022-08-19T07:44:22;27.10;99.90
4615;DHT22;2320;51.362;6.946;2022-08-19T07:46:51;27.00;99.90
4615;DHT22;2320;51.362;6.946;2022-08-19T07:49:17;27.00;99.90
4615;DHT22;2320;51.362;6.946;2022-08-19T07:51:48;27.00;99.90
4615;DHT22;2320;51.362;6.946;2022-08-19T07:54:14;27.40;99.90
4615;DHT22;2320;51.362;6.946;2022-08-19T07:56:40;27.60;99.90
4615;DHT22;2320;51.362;6.946;2022-08-19T07:59:06;28.10;99.90
4615;DHT22;2320;51.362;6.946;2022-08-19T08:01:31;29.00;99.90
4615;DHT22;2320;51.362;6.946;2022-08-19T08:03:57;30.00;99.90
4615;DHT22;2320;51.362;6.946;2022-08-19T08:06:41;31.10;99.90
4615;DHT22;2320;51.362;6.946;2022-08-19T08:09:27;32.00;99.90
4615;DHT22;2320;51.362;6.946;2022-08-19T08:11:54;33.00;99.90
4615;DHT22;2320;51.362;6.946;2022-08-19T08:14:21;33.50;99.90
4615;DHT22;2320;51.362;6.946;2022-08-19T08:16:48;33.70;99.90
4615;DHT22;2320;51.362;6.946;2022-08-19T08:19:17;34.30;99.90
4615;DHT22;2320;51.362;6.946;2022-08-19T08:21:42;34.90;99.90
4615;DHT22;2320;51.362;6.946;2022-08-19T08:24:08;35.00;99.90
4615;DHT22;2320;51.362;6.946;2022-08-19T08:26:33;34.50;99.90
4615;DHT22;2320;51.362;6.946;2022-08-19T08:28:59;34.30;99.90
4615;DHT22;2320;51.362;6.946;2022-08-19T08:31:24;33.70;99.90
4615;DHT22;2320;51.362;6.946;2022-08-19T08:33:50;33.20;99.90
4615;DHT22;2320;51.362;6.946;2022-08-19T08:36:15;33.00;99.90
4615;DHT22;2320;51.362;6.946;2022-08-19T08:38:42;33.30;99.90
4615;DHT22;2320;51.362;6.946;2022-08-19T08:43:55;34.10;99.90
4615;DHT22;2320;51.362;6.946;2022-08-19T08:46:24;34.30;99.90
4615;DHT22;2320;51.362;6.946;2022-08-19T08:48:53;34.30;99.90
4615;DHT22;2320;51.362;6.946;2022-08-19T08:51:24;34.10;99.90
4615;DHT22;2320;51.362;6.946;2022-08-19T08:53:51;33.50;99.90
4615;DHT22;2320;51.362;6.946;2022-08-19T08:56:17;32.50;99.90
4615;DHT22;2320;51.362;6.946;2022-08-19T08:58:45;31.60;99.90
4615;DHT22;2320;51.362;6.946;2022-08-19T09:01:12;31.00;99.90
4615;DHT22;2320;51.362;6.946;2022-08-19T09:03:39;30.90;99.90
4615;DHT22;2320;51.362;6.946;2022-08-19T09:11:37;30.00;99.90
4615;DHT22;2320;51.362;6.946;2022-08-19T09:14:08;30.20;99.90
4615;DHT22;2320;51.362;6.946;2022-08-19T09:16:35;30.40;99.90
4615;DHT22;2320;51.362;6.946;2022-08-19T09:19:02;31.00;99.90
4615;DHT22;2320;51.362;6.946;2022-08-19T09:21:28;31.10;99.90
4615;DHT22;2320;51.362;6.946;2022-08-19T09:23:53;31.60;99.90
4615;DHT22;2320;51.362;6.946;2022-08-19T09:26:20;32.30;99.90
4615;DHT22;2320;51.362;6.946;2022-08-19T09:28:46;32.30;99.90
4615;DHT22;2320;51.362;6.946;2022-08-19T09:31:16;32.10;99.90
4615;DHT22;2320;51.362;6.946;2022-08-19T09:33:42;32.00;99.90
4615;DHT22;2320;51.362;6.946;2022-08-19T09:36:11;32.50;99.90
4615;DHT22;2320;51.362;6.946;2022-08-19T09:38:38;33.10;99.90
4615;DHT22;2320;51.362;6.946;2022-08-19T09:41:12;33.30;99.90
4615;DHT22;2320;51.362;6.946;2022-08-19T09:43:39;33.80;99.90
4615;DHT22;2320;51.362;6.946;2022-08-19T09:46:04;34.20;99.90
4615;DHT22;2320;51.362;6.946;2022-08-19T09:48:32;34.10;99.90
4615;DHT22;2320;51.362;6.946;2022-08-19T09:51:07;33.40;99.90
4615;DHT22;2320;51.362;6.946;2022-08-19T09:53:34;33.00;99.90
4615;DHT22;2320;51.362;6.946;2022-08-19T09:55:59;32.70;99.90
4615;DHT22;2320;51.362;6.946;2022-08-19T09:58:25;32.40;99.90
4615;DHT22;2320;51.362;6.946;2022-08-19T10:00:56;32.40;99.90
4615;DHT22;2320;51.362;6.946;2022-08-19T10:03:22;32.00;99.90
4615;DHT22;2320;51.362;6.946;2022-08-19T10:05:48;31.90;99.90
4615;DHT22;2320;51.362;6.946;2022-08-19T10:08:21;31.60;99.90
4615;DHT22;2320;51.362;6.946;2022-08-19T10:10:47;31.40;99.90
4615;DHT22;2320;51.362;6.946;2022-08-19T10:13:14;31.40;99.90
4615;DHT22;2320;51.362;6.946;2022-08-19T10:15:40;31.10;99.90
4615;DHT22;2320;51.362;6.946;2022-08-19T10:18:06;31.10;99.90
4615;DHT22;2320;51.362;6.946;2022-08-19T10:20:31;31.30;99.90
4615;DHT22;2320;51.362;6.946;2022-08-19T10:22:57;31.50;99.90
4615;DHT22;2320;51.362;6.946;2022-08-19T10:25:24;31.40;99.90
4615;DHT22;2320;51.362;6.946;2022-08-19T10:27:52;31.20;99.90
4615;DHT22;2320;51.362;6.946;2022-08-19T10:30:17;31.40;99.90
4615;DHT22;2320;51.362;6.946;2022-08-19T10:32:44;31.90;99.90
4615;DHT22;2320;51.362;6.946;2022-08-19T10:35:11;32.20;99.90
4615;DHT22;2320;51.362;6.946;2022-08-19T10:37:37;32.50;99.90
4615;DHT22;2320;51.362;6.946;2022-08-19T10:40:04;32.30;99.90
4615;DHT22;2320;51.362;6.946;2022-08-19T10:42:30;32.60;99.90
4615;DHT22;2320;51.362;6.946;2022-08-19T10:44:56;32.50;99.90
4615;DHT22;2320;51.362;6.946;2022-08-19T10:47:21;33.10;99.90
4615;DHT22;2320;51.362;6.946;2022-08-19T10:49:48;34.10;99.90
4615;DHT22;2320;51.362;6.946;2022-08-19T10:52:32;34.30;99.90
4615;DHT22;2320;51.362;6.946;2022-08-19T10:55:06;33.00;99.90
4615;DHT22;2320;51.362;6.946;2022-08-19T10:57:50;32.30;99.90
4615;DHT22;2320;51.362;6.946;2022-08-19T11:00:18;31.50;99.90
4615;DHT22;2320;51.362;6.946;2022-08-19T11:02:43;31.30;99.90
4615;DHT22;2320;51.362;6.946;2022-08-19T11:05:09;31.70;99.90
4615;DHT22;2320;51.362;6.946;2022-08-19T11:07:38;31.50;99.90
4615;DHT22;2320;51.362;6.946;2022-08-19T11:10:04;30.90;99.90
4615;DHT22;2320;51.362;6.946;2022-08-19T11:12:30;30.20;99.90
4615;DHT22;2320;51.362;6.946;2022-08-19T11:14:55;29.90;99.90
4615;DHT22;2320;51.362;6.946;2022-08-19T11:17:21;29.90;99.90
4615;DHT22;2320;51.362;6.946;2022-08-19T11:19:48;29.60;99.90
4615;DHT22;2320;51.362;6.946;2022-08-19T11:22:14;29.30;99.90
4615;DHT22;2320;51.362;6.946;2022-08-19T11:24:40;29.20;99.90
4615;DHT22;2320;51.362;6.946;2022-08-19T11:27:08;29.50;99.90
4615;DHT22;2320;51.362;6.946;2022-08-19T11:29:34;30.10;99.90
4615;DHT22;2320;51.362;6.946;2022-08-19T11:32:02;30.80;99.90
4615;DHT22;2320;51.362;6.946;2022-08-19T11:34:28;31.20;99.90
4615;DHT22;2320;51.362;6.946;2022-08-19T11:36:55;31.70;99.90
4615;DHT22;2320;51.362;6.946;2022-08-19T11:39:25;32.00;99.90
4615;DHT22;2320;51.362;6.946;2022-08-19T11:41:51;32.20;99.90
4615;DHT22;2320;51.362;6.946;2022-08-19T11:44:16;32.10;99.90
4615;DHT22;2320;51.362;6.946;2022-08-19T11:46:43;32.00;99.90
4615;DHT22;2320;51.362;6.946;2022-08-19T11:49:11;31.70;99.90
4615;DHT22;2320;51.362;6.946;2022-08-19T11:51:36;31.40;99.90
4615;DHT22;2320;51.362;6.946;2022-08-19T11:54:03;31.10;99.90
4615;DHT22;2320;51.362;6.946;2022-08-19T11:56:29;30.90;99.90
4615;DHT22;2320;51.362;6.946;2022-08-19T11:58:55;30.90;99.90
4615;DHT22;2320;51.362;6.946;2022-08-19T12:01:22;30.70;99.90
4615;DHT22;2320;51.362;6.946;2022-08-19T12:03:49;30.60;99.90
4615;DHT22;2320;51.362;6.946;2022-08-19T12:06:15;30.30;99.90
4615;DHT22;2320;51.362;6.946;2022-08-19T12:08:41;30.20;99.90
4615;DHT22;2320;51.362;6.946;2022-08-19T12:11:08;30.00;99.90
4615;DHT22;2320;51.362;6.946;2022-08-19T12:13:33;29.90;99.90
4615;DHT22;2320;51.362;6.946;2022-08-19T12:15:59;30.20;99.90
4615;DHT22;2320;51.362;6.946;2022-08-19T12:18:25;30.10;99.90
4615;DHT22;2320;51.362;6.946;2022-08-19T12:20:50;30.20;99.90
4615;DHT22;2320;51.362;6.946;2022-08-19T12:23:16;30.00;99.90
4615;DHT22;2320;51.362;6.946;2022-08-19T12:25:45;29.80;99.90
4615;DHT22;2320;51.362;6.946;2022-08-19T12:28:20;29.80;99.90
4615;DHT22;2320;51.362;6.946;2022-08-19T12:30:47;29.80;99.90
4615;DHT22;2320;51.362;6.946;2022-08-19T12:33:13;29.80;99.90
4615;DHT22;2320;51.362;6.946;2022-08-19T12:35:42;30.00;99.90
4615;DHT22;2320;51.362;6.946;2022-08-19T12:38:09;30.30;99.90
4615;DHT22;2320;51.362;6.946;2022-08-19T12:40:35;29.90;99.90
4615;DHT22;2320;51.362;6.946;2022-08-19T12:43:00;29.50;99.90
4615;DHT22;2320;51.362;6.946;2022-08-19T12:45:26;29.40;99.90
4615;DHT22;2320;51.362;6.946;2022-08-19T12:47:51;29.40;99.90
4615;DHT22;2320;51.362;6.946;2022-08-19T12:50:18;29.40;99.90
4615;DHT22;2320;51.362;6.946;2022-08-19T12:52:43;29.30;99.90
4615;DHT22;2320;51.362;6.946;2022-08-19T12:55:09;29.30;99.90
4615;DHT22;2320;51.362;6.946;2022-08-19T12:57:36;29.40;99.90
4615;DHT22;2320;51.362;6.946;2022-08-19T13:00:06;29.20;99.90
4615;DHT22;2320;51.362;6.946;2022-08-19T13:02:35;29.30;99.90
4615;DHT22;2320;51.362;6.946;2022-08-19T13:05:01;29.00;99.90
4615;DHT22;2320;51.362;6.946;2022-08-19T13:07:27;29.10;99.90
4615;DHT22;2320;51.362;6.946;2022-08-19T13:09:52;29.10;99.90
4615;DHT22;2320;51.362;6.946;2022-08-19T13:12:18;29.20;99.90
4615;DHT22;2320;51.362;6.946;2022-08-19T13:14:45;29.40;99.90
4615;DHT22;2320;51.362;6.946;2022-08-19T13:17:15;29.40;99.90
4615;DHT22;2320;51.362;6.946;2022-08-19T13:19:40;29.40;99.90
4615;DHT22;2320;51.362;6.946;2022-08-19T13:22:06;29.60;99.90
4615;DHT22;2320;51.362;6.946;2022-08-19T13:24:32;29.70;99.90
4615;DHT22;2320;51.362;6.946;2022-08-19T13:26:58;29.50;99.90
4615;DHT22;2320;51.362;6.946;2022-08-19T13:29:24;29.50;99.90
4615;DHT22;2320;51.362;6.946;2022-08-19T13:32:08;29.50;99.90
4615;DHT22;2320;51.362;6.946;2022-08-19T13:34:52;29.60;99.90
4615;DHT22;2320;51.362;6.946;2022-08-19T13:37:18;29.50;99.90
4615;DHT22;2320;51.362;6.946;2022-08-19T13:40:03;29.50;99.90
4615;DHT22;2320;51.362;6.946;2022-08-19T13:42:29;29.00;99.90
4615;DHT22;2320;51.362;6.946;2022-08-19T13:44:55;28.90;99.90
4615;DHT22;2320;51.362;6.946;2022-08-19T13:47:20;28.90;99.90
4615;DHT22;2320;51.362;6.946;2022-08-19T13:49:46;29.00;99.90
4615;DHT22;2320;51.362;6.946;2022-08-19T13:52:11;28.80;99.90
4615;DHT22;2320;51.362;6.946;2022-08-19T13:54:37;28.80;99.90
4615;DHT22;2320;51.362;6.946;2022-08-19T13:57:02;28.90;99.90
4615;DHT22;2320;51.362;6.946;2022-08-19T13:59:28;28.90;99.90
4615;DHT22;2320;51.362;6.946;2022-08-19T14:01:57;28.70;99.90
4615;DHT22;2320;51.362;6.946;2022-08-19T14:04:22;28.90;99.90
4615;DHT22;2320;51.362;6.946;2022-08-19T14:06:48;28.80;99.90
4615;DHT22;2320;51.362;6.946;2022-08-19T14:09:13;28.70;99.90
4615;DHT22;2320;51.362;6.946;2022-08-19T14:11:39;28.60;99.90
4615;DHT22;2320;51.362;6.946;2022-08-19T14:14:04;28.50;99.90
4615;DHT22;2320;51.362;6.946;2022-08-19T14:16:30;28.50;99.90
4615;DHT22;2320;51.362;6.946;2022-08-19T14:18:55;28.50;99.90
4615;DHT22;2320;51.362;6.946;2022-08-19T14:21:21;28.40;99.90
4615;DHT22;2320;51.362;6.946;2022-08-19T14:23:49;28.40;99.90
4615;DHT22;2320;51.362;6.946;2022-08-19T14:26:16;28.40;99.90
4615;DHT22;2320;51.362;6.946;2022-08-19T14:28:42;28.40;99.90
4615;DHT22;2320;51.362;6.946;2022-08-19T14:31:08;28.20;99.90
4615;DHT22;2320;51.362;6.946;2022-08-19T14:33:33;28.20;99.90
4615;DHT22;2320;51.362;6.946;2022-08-19T14:35:59;28.10;99.90
4615;DHT22;2320;51.362;6.946;2022-08-19T14:38:25;28.20;99.90
4615;DHT22;2320;51.362;6.946;2022-08-19T14:40:51;28.20;99.90
4615;DHT22;2320;51.362;6.946;2022-08-19T14:43:17;27.90;99.90
4615;DHT22;2320;51.362;6.946;2022-08-19T14:45:42;27.70;99.90
4615;DHT22;2320;51.362;6.946;2022-08-19T14:48:08;27.70;99.90
4615;DHT22;2320;51.362;6.946;2022-08-19T14:50:34;27.80;99.90
4615;DHT22;2320;51.362;6.946;2022-08-19T14:53:02;27.90;99.90
4615;DHT22;2320;51.362;6.946;2022-08-19T14:55:29;27.70;99.90
4615;DHT22;2320;51.362;6.946;2022-08-19T14:57:54;27.70;99.90
4615;DHT22;2320;51.362;6.946;2022-08-19T15:00:20;27.80;99.90
4615;DHT22;2320;51.362;6.946;2022-08-19T15:02:46;27.90;99.90
4615;DHT22;2320;51.362;6.946;2022-08-19T15:05:12;27.90;99.90
4615;DHT22;2320;51.362;6.946;2022-08-19T15:07:38;28.00;99.90
4615;DHT22;2320;51.362;6.946;2022-08-19T15:10:04;28.00;99.90
4615;DHT22;2320;51.362;6.946;2022-08-19T15:12:32;27.90;99.90
4615;DHT22;2320;51.362;6.946;2022-08-19T15:14:59;27.90;99.90
4615;DHT22;2320;51.362;6.946;2022-08-19T15:17:24;27.80;99.90
4615;DHT22;2320;51.362;6.946;2022-08-19T15:19:50;27.80;99.90
4615;DHT22;2320;51.362;6.946;2022-08-19T15:22:16;27.90;99.90
4615;DHT22;2320;51.362;6.946;2022-08-19T15:24:41;27.80;99.90
4615;DHT22;2320;51.362;6.946;2022-08-19T15:27:10;27.90;99.90
4615;DHT22;2320;51.362;6.946;2022-08-19T15:29:36;27.90;99.90
4615;DHT22;2320;51.362;6.946;2022-08-19T15:32:01;28.10;99.90
4615;DHT22;2320;51.362;6.946;2022-08-19T15:34:27;27.90;99.90
4615;DHT22;2320;51.362;6.946;2022-08-19T15:36:52;28.10;99.90
4615;DHT22;2320;51.362;6.946;2022-08-19T15:39:18;28.10;99.90
4615;DHT22;2320;51.362;6.946;2022-08-19T15:41:44;28.00;99.90
4615;DHT22;2320;51.362;6.946;2022-08-19T15:44:12;28.00;99.90
4615;DHT22;2320;51.362;6.946;2022-08-19T15:46:39;28.00;99.90
4615;DHT22;2320;51.362;6.946;2022-08-19T15:49:05;28.00;99.90
4615;DHT22;2320;51.362;6.946;2022-08-19T15:51:31;28.00;99.90
4615;DHT22;2320;51.362;6.946;2022-08-19T15:53:58;27.90;99.90
4615;DHT22;2320;51.362;6.946;2022-08-19T15:56:24;28.00;99.90
4615;DHT22;2320;51.362;6.946;2022-08-19T15:58:49;27.90;99.90
4615;DHT22;2320;51.362;6.946;2022-08-19T16:01:33;27.90;99.90
4615;DHT22;2320;51.362;6.946;2022-08-19T16:04:34;28.00;99.90
4615;DHT22;2320;51.362;6.946;2022-08-19T16:07:18;27.80;99.90
4615;DHT22;2320;51.362;6.946;2022-08-19T16:09:43;27.90;99.90
4615;DHT22;2320;51.362;6.946;2022-08-19T16:12:09;27.90;99.90
4615;DHT22;2320;51.362;6.946;2022-08-19T16:14:34;28.00;99.90